Time;durP1;ratioP1;P1;durP2;ratioP2;P2;SDS_P1;SDS_P2;PMS_P1;PMS_P2;Temp;Humidity;BMP_temperature;BMP_pressure;BME280_temperature;BME280_humidity;BME280_pressure;Samples;Min_cycle;Max_cycle;Signal;HPM_P1;HPM_P2
2023/11/01 00:02:17;;;;;;;2.58;1.20;;;11.70;99.90;;;;;;4988566;28;20035;-52
2023/11/01 00:04:43;;;;;;;2.15;1.10;;;11.80;99.90;;;;;;5005117;28;20287;-51
2023/11/01 00:07:09;;;;;;;2.63;1.05;;;11.80;99.90;;;;;;5006149;28;20053;-51
2023/11/01 00:09:34;;;;;;;2.75;1.10;;;11.80;99.90;;;;;;5004767;28;20027;-52
2023/11/01 00:12:00;;;;;;;4.22;1.05;;;11.80;99.90;;;;;;5005854;28;20038;-51
2023/11/01 00:14:26;;;;;;;2.72;1.00;;;11.80;99.90;;;;;;5005601;28;20137;-51
2023/11/01 00:16:52;;;;;;;1.80;1.00;;;11.90;99.90;;;;;;5006096;28;20080;-51
2023/11/01 00:19:17;;;;;;;1.27;1.00;;;11.90;99.90;;;;;;5005587;28;20031;-51
2023/11/01 00:21:43;;;;;;;3.70;1.27;;;12.00;99.90;;;;;;5005877;28;20371;-49
2023/11/01 00:24:09;;;;;;;4.10;1.23;;;12.00;99.90;;;;;;5005872;28;20094;-52
2023/11/01 00:26:34;;;;;;;2.97;1.30;;;12.00;99.90;;;;;;5005804;28;20058;-52
2023/11/01 00:29:00;;;;;;;3.03;1.05;;;12.00;99.90;;;;;;5005937;28;20025;-51
2023/11/01 00:31:26;;;;;;;1.98;1.10;;;12.00;99.90;;;;;;5005760;28;20035;-51
2023/11/01 00:33:52;;;;;;;2.53;1.20;;;12.00;99.90;;;;;;5008907;28;20097;-52
2023/11/01 00:36:17;;;;;;;1.83;1.00;;;12.00;99.90;;;;;;5009709;28;20195;-51
2023/11/01 00:38:43;;;;;;;2.33;0.90;;;12.00;99.90;;;;;;5009667;28;20053;-48
2023/11/01 00:41:09;;;;;;;3.10;1.10;;;12.00;99.90;;;;;;5009622;28;20092;-52
2023/11/01 00:43:34;;;;;;;1.70;0.80;;;12.00;99.90;;;;;;5009506;28;20030;-51
2023/11/01 00:46:00;;;;;;;1.17;0.70;;;12.00;99.90;;;;;;5009247;28;20061;-51
2023/11/01 00:48:26;;;;;;;2.10;0.70;;;12.00;99.90;;;;;;5008553;28;20038;-51
2023/11/01 00:50:51;;;;;;;0.63;0.63;;;12.00;99.90;;;;;;5009411;28;20034;-51
2023/11/01 00:53:17;;;;;;;0.50;0.50;;;12.00;99.90;;;;;;5009409;28;20034;-51
2023/11/01 00:55:43;;;;;;;0.60;0.60;;;12.00;99.90;;;;;;5009193;28;20303;-49
2023/11/01 00:58:08;;;;;;;1.70;0.63;;;12.00;99.90;;;;;;5009020;28;20030;-51
2023/11/01 01:00:34;;;;;;;1.08;0.60;;;12.00;99.90;;;;;;5009183;28;20034;-49
2023/11/01 01:03:00;;;;;;;0.60;0.60;;;12.00;99.90;;;;;;5009160;28;20068;-48
2023/11/01 01:05:25;;;;;;;0.50;0.50;;;12.10;99.90;;;;;;5007962;28;20034;-50
2023/11/01 01:07:51;;;;;;;2.10;0.63;;;12.10;99.90;;;;;;5008701;28;20093;-49
2023/11/01 01:10:17;;;;;;;1.55;0.70;;;12.10;99.90;;;;;;5008709;28;20085;-49
2023/11/01 01:12:43;;;;;;;0.60;0.60;;;12.10;99.90;;;;;;5009020;28;20053;-48
2023/11/01 01:15:09;;;;;;;0.50;0.50;;;12.10;99.90;;;;;;5009079;28;20022;-52
2023/11/01 01:17:34;;;;;;;0.88;0.60;;;12.10;99.90;;;;;;5008501;28;20034;-51
2023/11/01 01:20:00;;;;;;;1.05;0.60;;;12.20;99.90;;;;;;5008505;28;20022;-52
2023/11/01 01:22:26;;;;;;;0.57;0.52;;;12.20;99.90;;;;;;5008940;28;20068;-51
2023/11/01 01:24:51;;;;;;;0.88;0.60;;;12.20;99.90;;;;;;5008839;28;20034;-51
2023/11/01 01:27:18;;;;;;;3.63;0.70;;;12.30;99.90;;;;;;5008829;28;20030;-52
2023/11/01 01:29:44;;;;;;;1.02;0.60;;;12.30;99.90;;;;;;5008460;28;20131;-51
2023/11/01 01:32:09;;;;;;;1.45;0.60;;;12.30;99.90;;;;;;5008548;28;20030;-51
2023/11/01 01:34:35;;;;;;;2.00;1.10;;;12.30;99.90;;;;;;5008608;28;20033;-48
2023/11/01 01:37:01;;;;;;;1.20;0.70;;;12.20;99.90;;;;;;5008610;28;20032;-48
2023/11/01 01:39:27;;;;;;;1.25;0.68;;;12.20;99.90;;;;;;5007437;28;20030;-51
2023/11/01 01:41:52;;;;;;;0.80;0.60;;;12.10;99.90;;;;;;5008263;28;20156;-51
2023/11/01 01:44:18;;;;;;;0.60;0.60;;;12.10;99.90;;;;;;5008240;28;20045;-50
2023/11/01 01:46:44;;;;;;;3.15;0.77;;;12.00;99.90;;;;;;5008493;28;20031;-51
2023/11/01 01:49:10;;;;;;;4.07;0.80;;;11.90;99.90;;;;;;5007337;28;20026;-50
2023/11/01 01:51:36;;;;;;;1.10;0.57;;;11.90;99.90;;;;;;4990888;28;20065;-51
2023/11/01 01:54:02;;;;;;;0.85;0.52;;;11.90;99.90;;;;;;5008064;28;20030;-51
2023/11/01 01:56:27;;;;;;;0.70;0.60;;;11.80;99.90;;;;;;5007213;28;20025;-51
2023/11/01 01:58:53;;;;;;;0.68;0.60;;;11.80;99.90;;;;;;4991103;28;20050;-48
2023/11/01 02:01:19;;;;;;;0.85;0.50;;;11.80;99.90;;;;;;5008183;28;20044;-51
2023/11/01 02:03:45;;;;;;;0.60;0.60;;;11.90;99.90;;;;;;5006948;28;20291;-51
2023/11/01 02:06:10;;;;;;;2.20;0.50;;;11.90;99.90;;;;;;5008102;28;20037;-51
2023/11/01 02:08:36;;;;;;;0.50;0.50;;;11.90;99.90;;;;;;5008068;28;20054;-51
2023/11/01 02:11:03;;;;;;;0.63;0.50;;;11.90;99.90;;;;;;5006506;28;20111;-50
2023/11/01 02:13:29;;;;;;;0.65;0.60;;;12.00;99.90;;;;;;5006777;28;20026;-50
2023/11/01 02:15:54;;;;;;;0.50;0.50;;;12.00;99.90;;;;;;5007580;28;20030;-49
2023/11/01 02:18:20;;;;;;;0.45;0.45;;;12.10;99.90;;;;;;5007683;28;20019;-51
2023/11/01 02:20:47;;;;;;;0.68;0.50;;;12.10;99.90;;;;;;5006863;28;20034;-49
2023/11/01 02:23:13;;;;;;;0.40;0.40;;;12.10;99.90;;;;;;5006421;28;20094;-48
2023/11/01 02:25:39;;;;;;;0.55;0.50;;;12.10;99.90;;;;;;5007364;28;20030;-49
2023/11/01 02:28:05;;;;;;;1.15;0.70;;;12.20;99.90;;;;;;5006713;28;20153;-48
2023/11/01 02:30:31;;;;;;;0.68;0.57;;;12.20;99.90;;;;;;5006405;28;20034;-52
2023/11/01 02:32:57;;;;;;;0.70;0.60;;;12.20;99.90;;;;;;5007481;28;20040;-50
2023/11/01 02:35:23;;;;;;;1.42;0.70;;;12.20;99.90;;;;;;5007135;28;20097;-50
2023/11/01 02:37:48;;;;;;;1.33;0.60;;;12.30;99.90;;;;;;5007332;28;20034;-51
2023/11/01 02:40:15;;;;;;;1.10;0.60;;;12.30;99.90;;;;;;5006161;28;20026;-51
2023/11/01 02:42:47;;;;;;;2.13;0.68;;;12.40;99.90;;;;;;5006367;28;20036;-49
2023/11/01 02:45:13;;;;;;;2.20;0.80;;;12.40;99.90;;;;;;5006300;28;20110;-51
2023/11/01 02:47:39;;;;;;;1.52;0.60;;;12.40;99.90;;;;;;5006294;28;20026;-51
2023/11/01 02:50:06;;;;;;;1.10;0.70;;;12.40;99.90;;;;;;5005983;28;20210;-51
2023/11/01 02:52:34;;;;;;;0.95;0.60;;;12.50;99.90;;;;;;5006127;28;20081;-51
2023/11/01 02:55:07;;;;;;;0.60;0.60;;;12.50;99.90;;;;;;5005323;28;20090;-51
2023/11/01 02:57:33;;;;;;;2.35;0.70;;;12.50;99.90;;;;;;5006807;28;20026;-51
2023/11/01 03:00:08;;;;;;;1.08;0.52;;;12.40;99.90;;;;;;5006056;28;20116;-51
2023/11/01 03:02:34;;;;;;;1.50;0.73;;;12.50;99.90;;;;;;5007034;28;20041;-51
2023/11/01 03:05:00;;;;;;;0.73;0.60;;;12.50;99.90;;;;;;5006906;28;20038;-51
2023/11/01 03:07:26;;;;;;;2.80;0.80;;;12.60;99.90;;;;;;5006796;28;20093;-49
2023/11/01 03:09:51;;;;;;;2.47;1.13;;;12.70;99.90;;;;;;5005820;28;20314;-50
2023/11/01 03:12:17;;;;;;;1.05;0.80;;;12.70;99.90;;;;;;5006716;28;20338;-49
2023/11/01 03:14:43;;;;;;;1.85;0.80;;;12.80;99.90;;;;;;5006787;28;20026;-49
2023/11/01 03:17:09;;;;;;;2.58;1.00;;;12.80;99.90;;;;;;5005829;28;20018;-50
2023/11/01 03:19:35;;;;;;;2.78;0.90;;;12.80;99.90;;;;;;5006387;28;20097;-50
2023/11/01 03:22:00;;;;;;;2.75;0.80;;;12.80;99.90;;;;;;5006427;28;20084;-49
2023/11/01 03:24:26;;;;;;;3.92;0.80;;;12.80;99.90;;;;;;5006728;28;20057;-50
2023/11/01 03:26:52;;;;;;;1.75;0.90;;;12.90;99.90;;;;;;5006152;28;20045;-50
2023/11/01 03:29:17;;;;;;;2.55;1.00;;;12.90;99.90;;;;;;5006516;28;20022;-51
2023/11/01 03:31:43;;;;;;;1.33;0.80;;;12.90;99.90;;;;;;5006684;28;20090;-50
2023/11/01 03:34:10;;;;;;;3.25;1.00;;;12.90;99.90;;;;;;5006406;28;20030;-51
2023/11/01 03:36:35;;;;;;;1.42;1.02;;;12.90;99.90;;;;;;5006565;28;20264;-48
2023/11/01 03:39:01;;;;;;;2.15;0.90;;;12.90;99.90;;;;;;5006418;28;20037;-50
2023/11/01 03:41:27;;;;;;;2.97;1.20;;;12.90;99.90;;;;;;5006511;28;20299;-49
2023/11/01 03:43:52;;;;;;;3.47;1.00;;;12.90;99.90;;;;;;5005420;28;20029;-48
2023/11/01 03:46:19;;;;;;;2.35;1.10;;;12.90;99.90;;;;;;5006223;28;20030;-49
2023/11/01 03:48:44;;;;;;;2.90;0.90;;;12.90;99.90;;;;;;5005214;28;20026;-47
2023/11/01 03:51:10;;;;;;;4.00;1.17;;;13.00;99.90;;;;;;5005332;28;20106;-48
2023/11/01 03:53:36;;;;;;;3.55;1.05;;;13.00;99.90;;;;;;5005360;28;20086;-51
2023/11/01 03:56:03;;;;;;;2.78;0.93;;;13.10;99.90;;;;;;5006152;28;20034;-47
2023/11/01 03:58:29;;;;;;;2.20;0.90;;;13.20;99.90;;;;;;5005041;28;20022;-48
2023/11/01 04:00:56;;;;;;;1.83;0.80;;;13.30;99.90;;;;;;5006235;28;20084;-51
2023/11/01 04:03:23;;;;;;;3.55;1.20;;;13.30;99.90;;;;;;5005783;28;20034;-50
2023/11/01 04:05:49;;;;;;;2.67;1.20;;;13.30;99.90;;;;;;5006069;28;20053;-49
2023/11/01 04:08:14;;;;;;;6.45;1.40;;;13.30;99.90;;;;;;5008236;28;20026;-50
2023/11/01 04:10:40;;;;;;;3.38;1.30;;;13.30;99.90;;;;;;5008753;28;20042;-48
2023/11/01 04:13:06;;;;;;;4.03;1.20;;;13.30;99.90;;;;;;5010110;28;20027;-48
2023/11/01 04:15:31;;;;;;;2.30;0.80;;;13.30;99.90;;;;;;5008949;28;20097;-50
2023/11/01 04:17:57;;;;;;;4.35;1.00;;;13.20;99.90;;;;;;5009826;28;20034;-50
2023/11/01 04:20:23;;;;;;;2.63;1.00;;;13.20;99.90;;;;;;5009910;28;20026;-50
2023/11/01 04:22:49;;;;;;;4.30;1.27;;;13.20;99.90;;;;;;5010086;28;20145;-50
2023/11/01 04:25:15;;;;;;;5.20;1.17;;;13.30;99.90;;;;;;5009964;28;20928;-50
2023/11/01 04:27:41;;;;;;;3.03;1.15;;;13.20;99.90;;;;;;5009816;28;20030;-51
2023/11/01 04:30:10;;;;;;;3.47;1.10;;;13.20;99.90;;;;;;5009493;28;20157;-51
2023/11/01 04:32:36;;;;;;;2.78;0.90;;;13.20;99.90;;;;;;5009752;28;20200;-50
2023/11/01 04:35:03;;;;;;;4.18;1.10;;;13.20;99.90;;;;;;5009737;28;20061;-51
2023/11/01 04:37:32;;;;;;;4.55;1.35;;;13.20;99.90;;;;;;5009440;28;20022;-51
2023/11/01 04:39:57;;;;;;;2.22;0.90;;;13.10;99.90;;;;;;5009742;28;20034;-51
2023/11/01 04:42:23;;;;;;;1.58;0.75;;;13.10;99.90;;;;;;5009526;28;20074;-51
2023/11/01 04:44:49;;;;;;;3.17;0.93;;;13.10;99.90;;;;;;5009643;28;20026;-50
2023/11/01 04:47:15;;;;;;;1.80;0.80;;;13.00;99.90;;;;;;5009465;28;20347;-50
2023/11/01 04:49:40;;;;;;;1.65;0.82;;;13.00;99.90;;;;;;5009387;28;20094;-47
2023/11/01 04:52:06;;;;;;;3.15;0.93;;;12.90;99.90;;;;;;5009611;28;20018;-48
2023/11/01 04:54:33;;;;;;;2.47;1.05;;;13.00;99.90;;;;;;5009318;28;20061;-50
2023/11/01 04:57:00;;;;;;;2.33;0.93;;;13.10;99.90;;;;;;5009877;28;20029;-51
2023/11/01 04:59:30;;;;;;;4.68;1.50;;;13.10;99.90;;;;;;5008118;28;20026;-48
2023/11/01 05:01:56;;;;;;;5.43;1.15;;;13.00;99.90;;;;;;5008384;28;20033;-51
2023/11/01 05:04:22;;;;;;;5.90;1.50;;;13.00;99.90;;;;;;5008328;28;20034;-47
2023/11/01 05:06:48;;;;;;;12.27;2.03;;;12.90;99.90;;;;;;5009339;28;20289;-51
2023/11/01 05:09:13;;;;;;;6.93;1.63;;;12.80;99.90;;;;;;5008083;28;20191;-51
2023/11/01 05:11:39;;;;;;;11.13;1.73;;;12.80;99.90;;;;;;4991384;28;20097;-51
2023/11/01 05:14:05;;;;;;;12.43;1.92;;;12.70;99.90;;;;;;5008908;28;20080;-50
2023/11/01 05:16:32;;;;;;;7.88;1.45;;;12.70;99.90;;;;;;5009101;28;20042;-50
2023/11/01 05:18:57;;;;;;;13.43;2.00;;;12.60;99.90;;;;;;5008507;28;20022;-49
2023/11/01 05:21:23;;;;;;;8.70;1.75;;;12.60;99.90;;;;;;5009049;28;20030;-47
2023/11/01 05:23:48;;;;;;;13.73;1.90;;;12.60;99.90;;;;;;5008569;28;20039;-51
2023/11/01 05:26:15;;;;;;;5.93;1.50;;;12.50;99.90;;;;;;5007743;28;20030;-50
2023/11/01 05:28:40;;;;;;;8.88;1.88;;;12.50;99.90;;;;;;5008786;28;20032;-50
2023/11/01 05:31:06;;;;;;;12.27;2.08;;;12.50;99.90;;;;;;5008562;28;20034;-51
2023/11/01 05:33:32;;;;;;;10.95;1.85;;;12.50;99.90;;;;;;5008974;28;20228;-50
2023/11/01 05:35:57;;;;;;;10.18;1.48;;;12.40;99.90;;;;;;5008585;28;20022;-51
2023/11/01 05:38:25;;;;;;;5.57;1.40;;;12.40;99.90;;;;;;5008511;28;20187;-50
2023/11/01 05:40:51;;;;;;;6.57;1.25;;;12.40;99.90;;;;;;5008521;28;20097;-51
2023/11/01 05:43:17;;;;;;;8.27;1.80;;;12.40;99.90;;;;;;5007493;28;20283;-50
2023/11/01 05:45:42;;;;;;;9.52;1.83;;;12.40;99.90;;;;;;5008531;28;20030;-51
2023/11/01 05:48:08;;;;;;;12.77;2.40;;;12.40;99.90;;;;;;5007439;28;20038;-51
2023/11/01 05:50:34;;;;;;;10.15;1.40;;;12.30;99.90;;;;;;5007874;28;20026;-50
2023/11/01 05:53:02;;;;;;;11.25;1.75;;;12.30;99.90;;;;;;5008340;28;20050;-50
2023/11/01 05:55:28;;;;;;;9.18;2.17;;;12.30;99.90;;;;;;5007969;28;20158;-48
2023/11/01 05:57:54;;;;;;;8.77;1.60;;;12.30;99.90;;;;;;4991186;28;20014;-47
2023/11/01 06:00:20;;;;;;;9.73;1.60;;;12.20;99.90;;;;;;5008026;28;20045;-49
2023/11/01 06:02:46;;;;;;;8.93;2.28;;;12.20;99.90;;;;;;5008025;28;20030;-48
2023/11/01 06:05:11;;;;;;;16.40;2.20;;;12.20;99.90;;;;;;5007715;28;20080;-49
2023/11/01 06:07:37;;;;;;;8.18;2.05;;;12.10;99.90;;;;;;4990716;28;20076;-50
2023/11/01 06:10:03;;;;;;;10.10;1.60;;;12.10;99.90;;;;;;5007558;28;20237;-47
2023/11/01 06:12:29;;;;;;;11.82;2.00;;;12.10;99.90;;;;;;5007136;28;20223;-47
2023/11/01 06:14:55;;;;;;;10.70;1.92;;;12.00;99.90;;;;;;5007913;28;20062;-47
2023/11/01 06:17:20;;;;;;;11.23;2.00;;;12.00;99.90;;;;;;5006805;28;20114;-50
2023/11/01 06:19:48;;;;;;;12.80;1.83;;;12.00;99.90;;;;;;5007814;28;20041;-48
2023/11/01 06:22:14;;;;;;;12.80;1.98;;;11.90;99.90;;;;;;5006693;28;20045;-47
2023/11/01 06:24:40;;;;;;;8.45;1.80;;;11.90;99.90;;;;;;5007600;28;20334;-51
2023/11/01 06:27:06;;;;;;;10.48;1.80;;;11.90;99.90;;;;;;5007774;28;20038;-48
2023/11/01 06:29:31;;;;;;;11.95;2.10;;;11.90;99.90;;;;;;5006999;28;20291;-49
2023/11/01 06:31:57;;;;;;;12.00;1.83;;;12.00;99.90;;;;;;5007206;28;20026;-49
2023/11/01 06:34:23;;;;;;;18.02;2.67;;;12.00;99.90;;;;;;5007656;28;20062;-50
2023/11/01 06:36:48;;;;;;;14.25;2.65;;;12.10;99.90;;;;;;5006998;28;20033;-47
2023/11/01 06:39:14;;;;;;;16.75;2.30;;;12.10;99.90;;;;;;5007440;28;20038;-47
2023/11/01 06:41:40;;;;;;;11.90;2.00;;;12.10;99.90;;;;;;5007351;28;20026;-50
2023/11/01 06:44:07;;;;;;;13.60;2.60;;;12.00;99.90;;;;;;5006990;28;20049;-50
2023/11/01 06:46:32;;;;;;;12.05;2.03;;;12.00;99.90;;;;;;5006257;28;20033;-49
2023/11/01 06:48:59;;;;;;;12.50;2.00;;;12.00;99.90;;;;;;5007310;28;20026;-50
2023/11/01 06:51:24;;;;;;;16.50;2.78;;;12.00;99.90;;;;;;5006567;28;20034;-50
2023/11/01 06:53:51;;;;;;;12.93;2.08;;;12.00;99.90;;;;;;5006877;28;20037;-50
2023/11/01 06:56:16;;;;;;;15.13;2.28;;;12.00;99.90;;;;;;5007073;28;20026;-50
2023/11/01 06:58:43;;;;;;;14.43;2.33;;;11.90;99.90;;;;;;5006138;28;20092;-50
2023/11/01 07:01:11;;;;;;;17.63;2.58;;;11.90;99.90;;;;;;5007081;28;20085;-51
2023/11/01 07:03:37;;;;;;;15.15;2.60;;;11.90;99.90;;;;;;5006172;28;20030;-50
2023/11/01 07:06:03;;;;;;;15.40;2.15;;;11.90;99.90;;;;;;5006791;28;20041;-51
2023/11/01 07:08:28;;;;;;;13.57;2.70;;;11.90;99.90;;;;;;5006542;28;20093;-50
2023/11/01 07:10:54;;;;;;;17.90;3.03;;;11.90;99.90;;;;;;5006379;28;20050;-50
2023/11/01 07:13:20;;;;;;;17.65;2.13;;;11.90;99.90;;;;;;5006780;28;20060;-47
2023/11/01 07:15:47;;;;;;;26.00;2.70;;;11.90;99.90;;;;;;5006683;28;20029;-50
2023/11/01 07:18:12;;;;;;;14.90;3.28;;;11.90;99.90;;;;;;5006575;28;20030;-50
2023/11/01 07:20:38;;;;;;;20.73;3.40;;;11.90;99.90;;;;;;5006611;28;20038;-48
2023/11/01 07:23:04;;;;;;;16.67;2.30;;;11.90;99.90;;;;;;5006614;28;20089;-50
2023/11/01 07:25:30;;;;;;;16.83;2.00;;;11.90;99.90;;;;;;5006334;28;20044;-48
2023/11/01 07:27:56;;;;;;;15.35;2.38;;;11.90;99.90;;;;;;5005457;28;20026;-49
2023/11/01 07:30:21;;;;;;;16.25;2.45;;;12.00;99.90;;;;;;5006192;28;20271;-47
2023/11/01 07:32:47;;;;;;;12.30;2.10;;;12.00;99.90;;;;;;5006488;28;20142;-48
2023/11/01 07:35:13;;;;;;;14.73;2.35;;;12.00;99.90;;;;;;5006350;28;20030;-48
2023/11/01 07:37:38;;;;;;;13.40;1.98;;;12.00;99.90;;;;;;5006474;28;20085;-47
2023/11/01 07:40:05;;;;;;;17.42;3.20;;;12.00;99.90;;;;;;5005744;28;20026;-48
2023/11/01 07:42:31;;;;;;;15.35;2.10;;;12.00;99.90;;;;;;5004580;28;20034;-50
2023/11/01 07:44:56;;;;;;;12.98;2.17;;;12.00;99.90;;;;;;5006182;28;20334;-49
2023/11/01 07:47:22;;;;;;;12.50;2.22;;;12.00;99.90;;;;;;5005959;28;20038;-48
2023/11/01 07:49:49;;;;;;;12.05;2.15;;;12.00;99.90;;;;;;5004900;28;20042;-47
2023/11/01 07:52:15;;;;;;;12.02;2.47;;;12.00;99.90;;;;;;5006078;28;20052;-50
2023/11/01 07:54:41;;;;;;;12.77;2.40;;;12.00;99.90;;;;;;5006229;28;20026;-50
2023/11/01 07:57:06;;;;;;;22.25;3.38;;;12.10;99.90;;;;;;5006035;28;20030;-47
2023/11/01 07:59:32;;;;;;;15.48;2.33;;;12.20;99.90;;;;;;5006017;28;20085;-51
2023/11/01 08:01:58;;;;;;;11.48;2.25;;;12.20;99.90;;;;;;5005867;28;20072;-50
2023/11/01 08:04:23;;;;;;;12.90;2.88;;;12.30;99.90;;;;;;5005902;28;20026;-48
2023/11/01 08:06:49;;;;;;;17.38;4.05;;;12.30;99.90;;;;;;5006079;28;20026;-50
2023/11/01 08:09:15;;;;;;;16.75;2.35;;;12.30;99.90;;;;;;5005926;28;20072;-51
2023/11/01 08:11:40;;;;;;;19.00;2.78;;;12.30;99.90;;;;;;5005480;28;20042;-51
2023/11/01 08:14:07;;;;;;;13.93;2.63;;;12.30;99.90;;;;;;5005914;28;20033;-51
2023/11/01 08:16:33;;;;;;;7.22;1.85;;;12.30;99.90;;;;;;5005343;28;20035;-49
2023/11/01 08:18:59;;;;;;;13.45;2.20;;;12.40;99.90;;;;;;5005928;28;20092;-48
2023/11/01 08:21:24;;;;;;;13.90;2.45;;;12.40;99.90;;;;;;5005898;28;20040;-50
2023/11/01 08:23:50;;;;;;;13.73;2.80;;;12.50;99.90;;;;;;5005622;28;20029;-50
2023/11/01 08:26:19;;;;;;;11.80;1.70;;;12.70;99.90;;;;;;5004545;28;20268;-50
2023/11/01 08:28:46;;;;;;;10.70;1.92;;;12.80;99.90;;;;;;5005658;28;20041;-51
2023/11/01 08:31:12;;;;;;;14.13;2.88;;;12.90;99.90;;;;;;5005190;28;20022;-50
2023/11/01 08:33:39;;;;;;;13.57;2.50;;;13.10;99.90;;;;;;5004535;28;20031;-50
2023/11/01 08:36:05;;;;;;;18.40;3.25;;;13.20;99.90;;;;;;5005527;28;20033;-51
2023/11/01 08:38:31;;;;;;;14.45;2.42;;;13.10;99.90;;;;;;5005526;28;20284;-51
2023/11/01 08:40:57;;;;;;;14.90;2.22;;;13.10;99.90;;;;;;5005601;28;20085;-50
2023/11/01 08:43:22;;;;;;;12.90;2.25;;;13.10;99.90;;;;;;5005072;28;20149;-50
2023/11/01 08:45:48;;;;;;;14.82;2.40;;;13.10;99.90;;;;;;5004874;28;20041;-51
2023/11/01 08:48:16;;;;;;;16.42;2.42;;;13.10;99.90;;;;;;5005243;28;20070;-47
2023/11/01 08:50:41;;;;;;;11.57;1.73;;;13.10;99.90;;;;;;5005196;28;20279;-51
2023/11/01 08:53:07;;;;;;;13.55;2.38;;;13.20;99.90;;;;;;5005732;28;20030;-47
2023/11/01 08:55:33;;;;;;;12.68;2.42;;;13.20;99.90;;;;;;5008010;28;20040;-48
2023/11/01 08:57:59;;;;;;;9.75;2.03;;;13.10;99.90;;;;;;5008900;28;20053;-48
2023/11/01 09:00:25;;;;;;;8.90;1.88;;;13.00;99.90;;;;;;5008530;28;20030;-50
2023/11/01 09:02:50;;;;;;;7.68;2.33;;;13.00;99.90;;;;;;5007638;28;20046;-50
2023/11/01 09:05:16;;;;;;;15.48;2.78;;;13.00;99.90;;;;;;5007507;28;20034;-48
2023/11/01 09:07:42;;;;;;;8.23;1.70;;;13.00;99.90;;;;;;5007837;28;20041;-51
2023/11/01 09:10:08;;;;;;;12.88;2.25;;;13.00;99.90;;;;;;5008403;28;20255;-51
2023/11/01 09:12:34;;;;;;;10.85;1.83;;;13.00;99.90;;;;;;5007628;28;20050;-50
2023/11/01 09:15:00;;;;;;;10.77;2.10;;;13.00;99.90;;;;;;5007594;28;20022;-48
2023/11/01 09:17:26;;;;;;;5.70;1.40;;;13.00;99.90;;;;;;5008317;28;20026;-51
2023/11/01 09:19:51;;;;;;;9.35;1.70;;;12.70;99.90;;;;;;5007581;28;20050;-50
2023/11/01 09:22:17;;;;;;;8.55;1.90;;;12.50;99.90;;;;;;5008492;28;20030;-51
2023/11/01 09:24:43;;;;;;;10.63;1.70;;;12.60;99.90;;;;;;5008563;28;20053;-49
2023/11/01 09:27:09;;;;;;;10.35;1.70;;;12.90;99.90;;;;;;5008773;28;20053;-50
2023/11/01 09:29:34;;;;;;;12.93;2.33;;;13.00;99.90;;;;;;5008159;28;20088;-51
2023/11/01 09:32:00;;;;;;;5.95;1.90;;;13.00;99.90;;;;;;5008177;28;20081;-50
2023/11/01 09:34:26;;;;;;;11.02;2.00;;;12.80;99.90;;;;;;5007171;28;20097;-51
2023/11/01 09:36:52;;;;;;;10.40;1.83;;;12.80;99.90;;;;;;5006981;28;20208;-49
2023/11/01 09:39:18;;;;;;;4.53;1.17;;;12.80;99.90;;;;;;5007275;28;20097;-49
2023/11/01 09:41:59;;;;;;;4.00;1.30;;;12.80;99.90;;;;;;5007949;28;20157;-49
2023/11/01 09:44:24;;;;;;;13.98;1.95;;;12.80;99.90;;;;;;4991484;28;20037;-46
2023/11/01 09:46:50;;;;;;;8.20;1.70;;;12.60;99.90;;;;;;4990665;28;20053;-47
2023/11/01 09:49:16;;;;;;;10.13;1.75;;;12.50;99.90;;;;;;4974670;28;20042;-46
2023/11/01 09:51:43;;;;;;;7.35;1.60;;;12.30;99.90;;;;;;5007785;28;20058;-48
2023/11/01 09:54:12;;;;;;;6.57;1.65;;;12.20;99.90;;;;;;5007802;28;20049;-49
2023/11/01 09:56:41;;;;;;;14.70;2.72;;;12.10;99.90;;;;;;5006811;28;20114;-47
2023/11/01 09:59:07;;;;;;;6.45;2.15;;;12.00;99.90;;;;;;5008031;28;20104;-51
2023/11/01 10:01:34;;;;;;;9.75;2.17;;;12.00;99.90;;;;;;5006818;28;20145;-49
2023/11/01 10:04:00;;;;;;;14.18;2.22;;;12.20;99.90;;;;;;4990472;28;20100;-49
2023/11/01 10:06:27;;;;;;;10.63;1.90;;;12.20;99.90;;;;;;5006933;28;20038;-48
2023/11/01 10:08:52;;;;;;;8.63;1.67;;;12.40;99.90;;;;;;5007795;28;20049;-47
2023/11/01 10:11:21;;;;;;;12.77;2.70;;;12.70;99.90;;;;;;5006546;28;20207;-47
2023/11/01 10:13:50;;;;;;;11.10;2.42;;;12.60;99.90;;;;;;5006633;28;20057;-51
2023/11/01 10:16:15;;;;;;;11.35;2.13;;;12.60;99.90;;;;;;5006460;28;20032;-50
2023/11/01 10:18:41;;;;;;;15.15;1.77;;;13.00;99.90;;;;;;5007026;28;20026;-49
2023/11/01 10:21:08;;;;;;;12.93;1.92;;;13.20;99.90;;;;;;5007681;28;20045;-47
2023/11/01 10:23:34;;;;;;;9.25;1.95;;;12.80;99.90;;;;;;5006816;28;20041;-48
2023/11/01 10:26:00;;;;;;;12.85;1.77;;;12.70;99.90;;;;;;5007291;28;20085;-50
2023/11/01 10:28:26;;;;;;;10.35;2.17;;;12.50;99.90;;;;;;5006396;28;20049;-49
2023/11/01 10:30:52;;;;;;;7.20;1.58;;;12.40;99.90;;;;;;5007708;28;20097;-48
2023/11/01 10:33:18;;;;;;;9.05;1.52;;;12.20;99.90;;;;;;5007446;28;20030;-48
2023/11/01 10:36:00;;;;;;;3.83;1.30;;;12.20;99.90;;;;;;5007179;28;20041;-49
2023/11/01 10:38:27;;;;;;;4.90;1.60;;;12.30;99.90;;;;;;5006300;28;20152;-49
2023/11/01 10:40:52;;;;;;;12.55;2.30;;;12.20;99.90;;;;;;5006259;28;20030;-49
2023/11/01 10:43:22;;;;;;;7.57;1.90;;;12.00;99.90;;;;;;5006837;28;20050;-48
2023/11/01 10:45:49;;;;;;;12.98;2.05;;;11.80;99.90;;;;;;5006791;28;20030;-48
2023/11/01 10:48:15;;;;;;;9.80;1.80;;;11.70;99.90;;;;;;5006876;28;20045;-50
2023/11/01 10:50:43;;;;;;;9.20;1.98;;;11.70;99.90;;;;;;5005911;28;20036;-48
2023/11/01 10:53:11;;;;;;;10.88;1.90;;;11.80;99.90;;;;;;5005911;28;20027;-48
2023/11/01 10:55:37;;;;;;;11.30;1.70;;;11.90;99.90;;;;;;4989983;28;20061;-48
2023/11/01 10:58:05;;;;;;;12.55;2.03;;;12.10;99.90;;;;;;5006691;28;20287;-48
2023/11/01 11:00:32;;;;;;;7.65;1.77;;;12.10;99.90;;;;;;5006781;28;20037;-49
2023/11/01 11:03:15;;;;;;;15.13;2.67;;;12.20;99.90;;;;;;5005795;28;20030;-48
2023/11/01 11:05:41;;;;;;;6.75;1.90;;;12.20;99.90;;;;;;5006604;28;20110;-48
2023/11/01 11:08:09;;;;;;;10.63;2.03;;;12.20;99.90;;;;;;5005393;28;20295;-48
2023/11/01 11:10:39;;;;;;;11.95;1.92;;;12.30;99.90;;;;;;5005160;28;20148;-49
2023/11/01 11:13:13;;;;;;;7.25;1.67;;;12.20;99.90;;;;;;5006243;28;20030;-49
2023/11/01 11:15:51;;;;;;;12.45;2.20;;;12.30;99.90;;;;;;5006019;28;20030;-49
2023/11/01 11:18:48;;;;;;;4.95;1.30;;;12.30;99.90;;;;;;5006263;28;20044;-49
2023/11/01 11:21:49;;;;;;;14.52;2.28;;;12.40;99.90;;;;;;4998823;28;20061;-48
2023/11/01 11:24:37;;;;;;;7.68;3.20;;;12.30;99.90;;;;;;4993588;28;20042;-50
2023/11/01 11:27:03;;;;;;;65.90;33.60;;;12.20;99.90;;;;;;5005798;28;20034;-48
2023/11/01 11:29:45;;;;;;;10.35;5.60;;;12.30;99.90;;;;;;5005448;28;20310;-48
2023/11/01 11:32:17;;;;;;;15.60;5.40;;;12.30;99.90;;;;;;5005239;28;20188;-49
2023/11/01 11:34:45;;;;;;;11.93;2.63;;;12.40;99.90;;;;;;5006135;28;20036;-49
2023/11/01 11:37:12;;;;;;;7.35;1.25;;;12.40;99.90;;;;;;5005323;28;20022;-48
2023/11/01 11:39:51;;;;;;;5.55;2.13;;;12.60;99.90;;;;;;5005890;28;20041;-48
2023/11/01 11:42:44;;;;;;;8.25;4.55;;;12.70;99.90;;;;;;4989011;28;20318;-49
2023/11/01 11:45:10;;;;;;;16.20;2.10;;;12.80;99.90;;;;;;5005899;28;20014;-48
2023/11/01 11:47:36;;;;;;;5.47;1.52;;;13.00;99.90;;;;;;5005801;28;20290;-48
2023/11/01 11:50:08;;;;;;;11.75;2.20;;;13.30;99.90;;;;;;5006150;28;20087;-48
2023/11/01 11:52:34;;;;;;;6.13;1.20;;;13.40;99.90;;;;;;5006100;28;20018;-48
2023/11/01 11:55:00;;;;;;;7.13;3.45;;;13.40;99.90;;;;;;5004683;28;20098;-46
2023/11/01 11:57:26;;;;;;;6.38;1.73;;;13.20;99.90;;;;;;5004600;28;20025;-46
2023/11/01 12:00:04;;;;;;;5.72;1.80;;;13.20;99.90;;;;;;5005798;28;20030;-46
2023/11/01 12:02:29;;;;;;;4.70;2.35;;;12.80;99.90;;;;;;5004787;28;20046;-52
2023/11/01 12:04:55;;;;;;;6.22;2.00;;;12.60;99.90;;;;;;5005525;28;20026;-52
2023/11/01 12:07:22;;;;;;;2.63;1.13;;;12.40;99.90;;;;;;4972245;28;20042;-51
2023/11/01 12:09:49;;;;;;;6.43;1.52;;;12.50;99.90;;;;;;5004544;28;20199;-52
2023/11/01 12:12:15;;;;;;;23.90;6.47;;;12.60;99.90;;;;;;5005459;28;20026;-50
2023/11/01 12:14:41;;;;;;;15.05;7.88;;;12.50;99.90;;;;;;4988661;28;20076;-50
2023/11/01 12:17:07;;;;;;;12.60;3.80;;;12.40;99.90;;;;;;5005208;28;20045;-50
2023/11/01 12:19:42;;;;;;;7.07;3.08;;;12.30;99.90;;;;;;5005460;28;20172;-48
2023/11/01 12:22:08;;;;;;;8.63;2.85;;;12.30;99.90;;;;;;5004839;28;20034;-47
2023/11/01 12:24:36;;;;;;;6.65;2.13;;;12.20;99.90;;;;;;5005360;28;20034;-47
2023/11/01 12:27:06;;;;;;;9.95;3.25;;;12.10;99.90;;;;;;5005480;28;20244;-50
2023/11/01 12:29:51;;;;;;;17.38;6.15;;;12.00;99.90;;;;;;5008080;28;20096;-50
2023/11/01 12:32:18;;;;;;;16.23;11.77;;;12.00;99.90;;;;;;5009138;28;20242;-50
2023/11/01 12:34:50;;;;;;;10.13;3.45;;;12.10;99.90;;;;;;5009208;28;20052;-50
2023/11/01 12:37:19;;;;;;;5.40;2.28;;;12.10;99.90;;;;;;5009113;28;20183;-50
2023/11/01 12:40:10;;;;;;;14.10;7.50;;;12.10;99.90;;;;;;5009221;28;20199;-50
2023/11/01 12:42:37;;;;;;;8.85;2.45;;;12.10;99.90;;;;;;5008923;28;20029;-50